sensor_id;sensor_type;location;lat;lon;timestamp;P1;durP1;ratioP1;P2;durP2;ratioP2
4200;SDS011;2114;50.398;8.814;2022-12-16T00:01:17;1.37;;;1.10;;
4200;SDS011;2114;50.398;8.814;2022-12-16T00:06:19;0.60;;;0.60;;
4200;SDS011;2114;50.398;8.814;2022-12-16T00:11:21;1.30;;;1.30;;
4200;SDS011;2114;50.398;8.814;2022-12-16T00:16:21;0.90;;;0.90;;
4200;SDS011;2114;50.398;8.814;2022-12-16T00:21:22;2.70;;;2.33;;
4200;SDS011;2114;50.398;8.814;2022-12-16T00:26:27;1.40;;;1.37;;
4200;SDS011;2114;50.398;8.814;2022-12-16T00:31:30;0.60;;;0.60;;
4200;SDS011;2114;50.398;8.814;2022-12-16T00:36:30;1.43;;;0.77;;
4200;SDS011;2114;50.398;8.814;2022-12-16T00:41:31;0.50;;;0.50;;
4200;SDS011;2114;50.398;8.814;2022-12-16T00:46:32;0.70;;;0.70;;
4200;SDS011;2114;50.398;8.814;2022-12-16T00:51:32;0.50;;;0.50;;
4200;SDS011;2114;50.398;8.814;2022-12-16T00:56:33;0.50;;;0.50;;
4200;SDS011;2114;50.398;8.814;2022-12-16T01:01:34;1.60;;;1.50;;
4200;SDS011;2114;50.398;8.814;2022-12-16T01:06:34;0.60;;;0.60;;
4200;SDS011;2114;50.398;8.814;2022-12-16T01:11:35;0.50;;;0.50;;
4200;SDS011;2114;50.398;8.814;2022-12-16T01:16:35;0.50;;;0.50;;
4200;SDS011;2114;50.398;8.814;2022-12-16T01:21:36;0.50;;;0.50;;
4200;SDS011;2114;50.398;8.814;2022-12-16T01:26:37;0.60;;;0.60;;
4200;SDS011;2114;50.398;8.814;2022-12-16T01:31:38;0.50;;;0.50;;
4200;SDS011;2114;50.398;8.814;2022-12-16T01:36:38;0.90;;;0.90;;
4200;SDS011;2114;50.398;8.814;2022-12-16T01:41:39;0.67;;;0.67;;
4200;SDS011;2114;50.398;8.814;2022-12-16T01:46:40;2.10;;;1.23;;
4200;SDS011;2114;50.398;8.814;2022-12-16T01:51:42;0.50;;;0.50;;
4200;SDS011;2114;50.398;8.814;2022-12-16T01:56:45;1.00;;;1.00;;
4200;SDS011;2114;50.398;8.814;2022-12-16T02:01:53;0.50;;;0.50;;
4200;SDS011;2114;50.398;8.814;2022-12-16T02:06:55;1.87;;;1.77;;
4200;SDS011;2114;50.398;8.814;2022-12-16T02:27:53;0.50;;;0.50;;
4200;SDS011;2114;50.398;8.814;2022-12-16T02:38:10;0.50;;;0.50;;
4200;SDS011;2114;50.398;8.814;2022-12-16T02:48:49;0.50;;;0.50;;
4200;SDS011;2114;50.398;8.814;2022-12-16T02:53:49;0.60;;;0.60;;
4200;SDS011;2114;50.398;8.814;2022-12-16T03:04:29;0.50;;;0.50;;
4200;SDS011;2114;50.398;8.814;2022-12-16T03:09:36;0.50;;;0.50;;
4200;SDS011;2114;50.398;8.814;2022-12-16T03:14:38;0.50;;;0.50;;
4200;SDS011;2114;50.398;8.814;2022-12-16T03:19:44;0.60;;;0.60;;
4200;SDS011;2114;50.398;8.814;2022-12-16T03:24:50;0.77;;;0.77;;
4200;SDS011;2114;50.398;8.814;2022-12-16T03:29:58;0.50;;;0.50;;
4200;SDS011;2114;50.398;8.814;2022-12-16T03:40:06;0.50;;;0.50;;
4200;SDS011;2114;50.398;8.814;2022-12-16T03:45:13;0.50;;;0.50;;
4200;SDS011;2114;50.398;8.814;2022-12-16T03:50:18;0.50;;;0.50;;
4200;SDS011;2114;50.398;8.814;2022-12-16T03:55:24;0.80;;;0.80;;
4200;SDS011;2114;50.398;8.814;2022-12-16T04:00:25;0.77;;;0.77;;
4200;SDS011;2114;50.398;8.814;2022-12-16T04:05:25;0.70;;;0.70;;
4200;SDS011;2114;50.398;8.814;2022-12-16T04:10:26;0.50;;;0.50;;
4200;SDS011;2114;50.398;8.814;2022-12-16T04:15:45;0.80;;;0.80;;
4200;SDS011;2114;50.398;8.814;2022-12-16T04:21:04;0.50;;;0.50;;
4200;SDS011;2114;50.398;8.814;2022-12-16T04:26:24;0.60;;;0.60;;
4200;SDS011;2114;50.398;8.814;2022-12-16T04:31:24;1.97;;;1.87;;
4200;SDS011;2114;50.398;8.814;2022-12-16T04:36:25;0.50;;;0.50;;
4200;SDS011;2114;50.398;8.814;2022-12-16T04:41:44;0.60;;;0.60;;
4200;SDS011;2114;50.398;8.814;2022-12-16T04:47:03;0.50;;;0.50;;
4200;SDS011;2114;50.398;8.814;2022-12-16T04:52:23;0.60;;;0.60;;
4200;SDS011;2114;50.398;8.814;2022-12-16T04:57:50;1.30;;;1.30;;
4200;SDS011;2114;50.398;8.814;2022-12-16T05:03:10;4.93;;;1.03;;
4200;SDS011;2114;50.398;8.814;2022-12-16T05:08:29;1.57;;;1.57;;
4200;SDS011;2114;50.398;8.814;2022-12-16T05:13:49;0.90;;;0.90;;
4200;SDS011;2114;50.398;8.814;2022-12-16T05:19:08;1.17;;;1.17;;
4200;SDS011;2114;50.398;8.814;2022-12-16T05:24:27;1.13;;;0.80;;
4200;SDS011;2114;50.398;8.814;2022-12-16T05:29:46;1.93;;;1.43;;
4200;SDS011;2114;50.398;8.814;2022-12-16T05:35:06;0.50;;;0.50;;
4200;SDS011;2114;50.398;8.814;2022-12-16T05:40:58;0.60;;;0.60;;
4200;SDS011;2114;50.398;8.814;2022-12-16T05:46:10;1.07;;;1.07;;
4200;SDS011;2114;50.398;8.814;2022-12-16T05:51:29;2.53;;;1.07;;
4200;SDS011;2114;50.398;8.814;2022-12-16T05:56:49;1.07;;;1.07;;
4200;SDS011;2114;50.398;8.814;2022-12-16T06:02:08;0.90;;;0.90;;
4200;SDS011;2114;50.398;8.814;2022-12-16T06:07:27;1.60;;;1.00;;
4200;SDS011;2114;50.398;8.814;2022-12-16T06:12:46;0.60;;;0.60;;
4200;SDS011;2114;50.398;8.814;2022-12-16T06:18:06;0.60;;;0.60;;
4200;SDS011;2114;50.398;8.814;2022-12-16T06:23:25;0.70;;;0.70;;
4200;SDS011;2114;50.398;8.814;2022-12-16T06:28:44;0.67;;;0.63;;
4200;SDS011;2114;50.398;8.814;2022-12-16T06:34:04;1.33;;;1.23;;
4200;SDS011;2114;50.398;8.814;2022-12-16T06:39:23;1.00;;;1.00;;
4200;SDS011;2114;50.398;8.814;2022-12-16T06:44:42;0.50;;;0.50;;
4200;SDS011;2114;50.398;8.814;2022-12-16T06:50:02;0.50;;;0.50;;
4200;SDS011;2114;50.398;8.814;2022-12-16T06:55:21;0.50;;;0.50;;
4200;SDS011;2114;50.398;8.814;2022-12-16T07:00:40;1.27;;;1.27;;
4200;SDS011;2114;50.398;8.814;2022-12-16T07:06:00;10.23;;;2.23;;
4200;SDS011;2114;50.398;8.814;2022-12-16T07:11:19;0.60;;;0.60;;
4200;SDS011;2114;50.398;8.814;2022-12-16T07:16:38;0.70;;;0.70;;
4200;SDS011;2114;50.398;8.814;2022-12-16T07:21:58;1.20;;;1.10;;
4200;SDS011;2114;50.398;8.814;2022-12-16T07:27:17;0.90;;;0.90;;
4200;SDS011;2114;50.398;8.814;2022-12-16T07:32:36;1.67;;;1.57;;
4200;SDS011;2114;50.398;8.814;2022-12-16T07:37:55;1.40;;;1.40;;
4200;SDS011;2114;50.398;8.814;2022-12-16T07:43:15;0.93;;;0.93;;
4200;SDS011;2114;50.398;8.814;2022-12-16T07:48:34;0.57;;;0.57;;
4200;SDS011;2114;50.398;8.814;2022-12-16T07:53:53;0.50;;;0.50;;
4200;SDS011;2114;50.398;8.814;2022-12-16T07:59:12;1.40;;;0.83;;
4200;SDS011;2114;50.398;8.814;2022-12-16T08:04:32;0.60;;;0.60;;
4200;SDS011;2114;50.398;8.814;2022-12-16T08:09:51;0.50;;;0.50;;
4200;SDS011;2114;50.398;8.814;2022-12-16T08:15:11;0.50;;;0.50;;
4200;SDS011;2114;50.398;8.814;2022-12-16T08:20:29;0.60;;;0.60;;
4200;SDS011;2114;50.398;8.814;2022-12-16T08:25:49;2.73;;;1.47;;
4200;SDS011;2114;50.398;8.814;2022-12-16T08:31:08;0.90;;;0.90;;
4200;SDS011;2114;50.398;8.814;2022-12-16T08:36:27;0.70;;;0.70;;
4200;SDS011;2114;50.398;8.814;2022-12-16T08:41:47;0.50;;;0.50;;
4200;SDS011;2114;50.398;8.814;2022-12-16T08:47:06;1.17;;;0.93;;
4200;SDS011;2114;50.398;8.814;2022-12-16T08:52:25;0.50;;;0.50;;
4200;SDS011;2114;50.398;8.814;2022-12-16T08:57:51;0.50;;;0.50;;
4200;SDS011;2114;50.398;8.814;2022-12-16T09:03:11;0.50;;;0.50;;
4200;SDS011;2114;50.398;8.814;2022-12-16T09:08:30;0.50;;;0.50;;
4200;SDS011;2114;50.398;8.814;2022-12-16T09:13:50;0.50;;;0.50;;
4200;SDS011;2114;50.398;8.814;2022-12-16T09:19:09;0.50;;;0.50;;
4200;SDS011;2114;50.398;8.814;2022-12-16T09:24:28;0.67;;;0.67;;
4200;SDS011;2114;50.398;8.814;2022-12-16T09:29:48;0.53;;;0.53;;
4200;SDS011;2114;50.398;8.814;2022-12-16T09:35:07;0.50;;;0.50;;
4200;SDS011;2114;50.398;8.814;2022-12-16T09:40:26;0.50;;;0.50;;
4200;SDS011;2114;50.398;8.814;2022-12-16T09:46:48;0.93;;;0.93;;
4200;SDS011;2114;50.398;8.814;2022-12-16T09:51:39;0.50;;;0.50;;
4200;SDS011;2114;50.398;8.814;2022-12-16T09:56:59;1.00;;;1.00;;
4200;SDS011;2114;50.398;8.814;2022-12-16T10:02:20;0.80;;;0.80;;
4200;SDS011;2114;50.398;8.814;2022-12-16T10:07:45;3.00;;;2.70;;
4200;SDS011;2114;50.398;8.814;2022-12-16T10:13:16;0.50;;;0.50;;
4200;SDS011;2114;50.398;8.814;2022-12-16T10:30:25;0.50;;;0.50;;
4200;SDS011;2114;50.398;8.814;2022-12-16T10:35:46;0.60;;;0.60;;
4200;SDS011;2114;50.398;8.814;2022-12-16T10:41:08;0.80;;;0.80;;
4200;SDS011;2114;50.398;8.814;2022-12-16T10:46:31;0.80;;;0.80;;
4200;SDS011;2114;50.398;8.814;2022-12-16T10:51:52;1.43;;;0.90;;
4200;SDS011;2114;50.398;8.814;2022-12-16T11:02:49;3.90;;;1.83;;
4200;SDS011;2114;50.398;8.814;2022-12-16T11:08:20;0.87;;;0.87;;
4200;SDS011;2114;50.398;8.814;2022-12-16T11:13:52;1.80;;;0.87;;
4200;SDS011;2114;50.398;8.814;2022-12-16T11:19:39;1.10;;;1.10;;
4200;SDS011;2114;50.398;8.814;2022-12-16T11:25:19;1.20;;;1.10;;
4200;SDS011;2114;50.398;8.814;2022-12-16T11:30:39;1.77;;;0.80;;
4200;SDS011;2114;50.398;8.814;2022-12-16T11:36:03;0.60;;;0.60;;
4200;SDS011;2114;50.398;8.814;2022-12-16T11:41:37;0.70;;;0.70;;
4200;SDS011;2114;50.398;8.814;2022-12-16T11:46:58;14.47;;;13.57;;
4200;SDS011;2114;50.398;8.814;2022-12-16T11:52:19;15.77;;;14.47;;
4200;SDS011;2114;50.398;8.814;2022-12-16T11:57:44;15.43;;;14.23;;
4200;SDS011;2114;50.398;8.814;2022-12-16T12:03:10;3.83;;;1.00;;
4200;SDS011;2114;50.398;8.814;2022-12-16T12:08:47;0.60;;;0.60;;
4200;SDS011;2114;50.398;8.814;2022-12-16T12:20:33;1.23;;;1.23;;
4200;SDS011;2114;50.398;8.814;2022-12-16T12:26:04;1.80;;;1.47;;
4200;SDS011;2114;50.398;8.814;2022-12-16T12:42:30;0.90;;;0.90;;
4200;SDS011;2114;50.398;8.814;2022-12-16T12:59:03;2.00;;;0.90;;
4200;SDS011;2114;50.398;8.814;2022-12-16T13:04:31;0.90;;;0.90;;
4200;SDS011;2114;50.398;8.814;2022-12-16T13:15:55;0.60;;;0.60;;
4200;SDS011;2114;50.398;8.814;2022-12-16T13:27:01;0.60;;;0.60;;
4200;SDS011;2114;50.398;8.814;2022-12-16T13:32:23;0.80;;;0.80;;
4200;SDS011;2114;50.398;8.814;2022-12-16T13:37:50;0.60;;;0.60;;
4200;SDS011;2114;50.398;8.814;2022-12-16T13:55:02;1.53;;;1.37;;
4200;SDS011;2114;50.398;8.814;2022-12-16T14:00:31;1.30;;;1.20;;
4200;SDS011;2114;50.398;8.814;2022-12-16T14:06:18;0.90;;;0.90;;
4200;SDS011;2114;50.398;8.814;2022-12-16T14:12:00;0.60;;;0.60;;
4200;SDS011;2114;50.398;8.814;2022-12-16T14:17:29;0.70;;;0.70;;
4200;SDS011;2114;50.398;8.814;2022-12-16T14:23:05;0.90;;;0.90;;
4200;SDS011;2114;50.398;8.814;2022-12-16T14:28:31;0.80;;;0.80;;
4200;SDS011;2114;50.398;8.814;2022-12-16T14:33:56;0.60;;;0.60;;
4200;SDS011;2114;50.398;8.814;2022-12-16T14:39:22;5.90;;;1.10;;
4200;SDS011;2114;50.398;8.814;2022-12-16T14:44:48;0.53;;;0.53;;
4200;SDS011;2114;50.398;8.814;2022-12-16T14:50:18;0.60;;;0.60;;
4200;SDS011;2114;50.398;8.814;2022-12-16T14:55:46;0.50;;;0.50;;
4200;SDS011;2114;50.398;8.814;2022-12-16T15:01:18;0.70;;;0.70;;
4200;SDS011;2114;50.398;8.814;2022-12-16T15:06:43;1.37;;;1.27;;
4200;SDS011;2114;50.398;8.814;2022-12-16T15:12:05;0.70;;;0.70;;
4200;SDS011;2114;50.398;8.814;2022-12-16T15:17:27;0.80;;;0.80;;
4200;SDS011;2114;50.398;8.814;2022-12-16T15:22:59;0.60;;;0.60;;
4200;SDS011;2114;50.398;8.814;2022-12-16T15:28:26;0.70;;;0.70;;
4200;SDS011;2114;50.398;8.814;2022-12-16T15:34:15;0.80;;;0.80;;
4200;SDS011;2114;50.398;8.814;2022-12-16T15:39:45;2.43;;;0.80;;
4200;SDS011;2114;50.398;8.814;2022-12-16T15:45:05;0.70;;;0.70;;
4200;SDS011;2114;50.398;8.814;2022-12-16T15:50:36;1.43;;;1.43;;
4200;SDS011;2114;50.398;8.814;2022-12-16T15:55:55;0.60;;;0.60;;
4200;SDS011;2114;50.398;8.814;2022-12-16T16:06:22;0.60;;;0.60;;
4200;SDS011;2114;50.398;8.814;2022-12-16T16:11:44;0.60;;;0.60;;
4200;SDS011;2114;50.398;8.814;2022-12-16T16:17:06;0.50;;;0.50;;
4200;SDS011;2114;50.398;8.814;2022-12-16T16:22:37;0.50;;;0.50;;
4200;SDS011;2114;50.398;8.814;2022-12-16T16:27:56;1.20;;;1.10;;
4200;SDS011;2114;50.398;8.814;2022-12-16T16:33:26;0.60;;;0.60;;
4200;SDS011;2114;50.398;8.814;2022-12-16T16:38:46;0.73;;;0.70;;
4200;SDS011;2114;50.398;8.814;2022-12-16T16:44:05;0.60;;;0.60;;
4200;SDS011;2114;50.398;8.814;2022-12-16T16:49:28;0.50;;;0.50;;
4200;SDS011;2114;50.398;8.814;2022-12-16T16:55:02;0.70;;;0.70;;
4200;SDS011;2114;50.398;8.814;2022-12-16T17:00:22;0.70;;;0.70;;
4200;SDS011;2114;50.398;8.814;2022-12-16T17:05:41;0.70;;;0.70;;
4200;SDS011;2114;50.398;8.814;2022-12-16T17:11:00;0.60;;;0.60;;
4200;SDS011;2114;50.398;8.814;2022-12-16T17:16:20;1.43;;;1.33;;
4200;SDS011;2114;50.398;8.814;2022-12-16T17:21:39;1.63;;;1.57;;
4200;SDS011;2114;50.398;8.814;2022-12-16T17:27:06;0.60;;;0.60;;
4200;SDS011;2114;50.398;8.814;2022-12-16T17:32:37;0.90;;;0.90;;
4200;SDS011;2114;50.398;8.814;2022-12-16T17:37:56;0.60;;;0.60;;
4200;SDS011;2114;50.398;8.814;2022-12-16T17:43:16;0.60;;;0.60;;
4200;SDS011;2114;50.398;8.814;2022-12-16T17:48:35;0.60;;;0.60;;
4200;SDS011;2114;50.398;8.814;2022-12-16T17:54:02;0.50;;;0.50;;
4200;SDS011;2114;50.398;8.814;2022-12-16T17:59:21;0.50;;;0.50;;
4200;SDS011;2114;50.398;8.814;2022-12-16T18:04:40;0.60;;;0.60;;
4200;SDS011;2114;50.398;8.814;2022-12-16T18:09:59;0.77;;;0.77;;
4200;SDS011;2114;50.398;8.814;2022-12-16T18:15:18;0.60;;;0.60;;
4200;SDS011;2114;50.398;8.814;2022-12-16T18:20:37;0.50;;;0.50;;
4200;SDS011;2114;50.398;8.814;2022-12-16T18:25:57;0.50;;;0.50;;
4200;SDS011;2114;50.398;8.814;2022-12-16T18:31:18;0.50;;;0.50;;
4200;SDS011;2114;50.398;8.814;2022-12-16T18:36:37;5.80;;;1.47;;
4200;SDS011;2114;50.398;8.814;2022-12-16T18:41:57;0.60;;;0.60;;
4200;SDS011;2114;50.398;8.814;2022-12-16T18:47:16;1.00;;;1.00;;
4200;SDS011;2114;50.398;8.814;2022-12-16T18:52:35;1.03;;;1.03;;
4200;SDS011;2114;50.398;8.814;2022-12-16T18:57:54;0.50;;;0.50;;
4200;SDS011;2114;50.398;8.814;2022-12-16T19:03:14;2.40;;;0.93;;
4200;SDS011;2114;50.398;8.814;2022-12-16T19:08:33;0.60;;;0.60;;
4200;SDS011;2114;50.398;8.814;2022-12-16T19:13:52;0.57;;;0.57;;
4200;SDS011;2114;50.398;8.814;2022-12-16T19:19:11;0.60;;;0.60;;
4200;SDS011;2114;50.398;8.814;2022-12-16T19:24:31;0.70;;;0.70;;
4200;SDS011;2114;50.398;8.814;2022-12-16T19:29:50;1.10;;;1.10;;
4200;SDS011;2114;50.398;8.814;2022-12-16T19:35:09;0.73;;;0.73;;
4200;SDS011;2114;50.398;8.814;2022-12-16T19:40:28;0.60;;;0.60;;
4200;SDS011;2114;50.398;8.814;2022-12-16T19:45:54;4.00;;;0.80;;
4200;SDS011;2114;50.398;8.814;2022-12-16T19:51:13;1.13;;;1.13;;
4200;SDS011;2114;50.398;8.814;2022-12-16T19:56:33;0.73;;;0.73;;
4200;SDS011;2114;50.398;8.814;2022-12-16T20:01:52;2.20;;;1.00;;
4200;SDS011;2114;50.398;8.814;2022-12-16T20:07:11;0.70;;;0.70;;
4200;SDS011;2114;50.398;8.814;2022-12-16T20:12:31;1.93;;;1.83;;
4200;SDS011;2114;50.398;8.814;2022-12-16T20:17:50;0.60;;;0.60;;
4200;SDS011;2114;50.398;8.814;2022-12-16T20:23:09;0.83;;;0.83;;
4200;SDS011;2114;50.398;8.814;2022-12-16T20:28:28;0.70;;;0.70;;
4200;SDS011;2114;50.398;8.814;2022-12-16T20:33:54;0.80;;;0.80;;
4200;SDS011;2114;50.398;8.814;2022-12-16T20:39:13;0.60;;;0.60;;
4200;SDS011;2114;50.398;8.814;2022-12-16T20:44:33;1.20;;;1.10;;
4200;SDS011;2114;50.398;8.814;2022-12-16T20:49:52;0.50;;;0.50;;
4200;SDS011;2114;50.398;8.814;2022-12-16T20:55:12;0.77;;;0.77;;
4200;SDS011;2114;50.398;8.814;2022-12-16T21:00:31;0.60;;;0.60;;
4200;SDS011;2114;50.398;8.814;2022-12-16T21:05:50;0.70;;;0.70;;
4200;SDS011;2114;50.398;8.814;2022-12-16T21:11:09;0.60;;;0.60;;
4200;SDS011;2114;50.398;8.814;2022-12-16T21:16:29;1.33;;;0.97;;
4200;SDS011;2114;50.398;8.814;2022-12-16T21:21:48;2.83;;;1.33;;
4200;SDS011;2114;50.398;8.814;2022-12-16T21:27:07;1.00;;;1.00;;
4200;SDS011;2114;50.398;8.814;2022-12-16T21:32:37;0.57;;;0.57;;
4200;SDS011;2114;50.398;8.814;2022-12-16T21:37:56;0.50;;;0.50;;
4200;SDS011;2114;50.398;8.814;2022-12-16T21:43:16;0.70;;;0.70;;
4200;SDS011;2114;50.398;8.814;2022-12-16T21:48:35;0.80;;;0.80;;
4200;SDS011;2114;50.398;8.814;2022-12-16T21:53:54;1.27;;;1.27;;
4200;SDS011;2114;50.398;8.814;2022-12-16T21:59:14;0.83;;;0.83;;
4200;SDS011;2114;50.398;8.814;2022-12-16T22:04:33;0.60;;;0.60;;
4200;SDS011;2114;50.398;8.814;2022-12-16T22:09:52;1.10;;;1.10;;
4200;SDS011;2114;50.398;8.814;2022-12-16T22:15:12;0.50;;;0.50;;
4200;SDS011;2114;50.398;8.814;2022-12-16T22:20:31;0.50;;;0.50;;
4200;SDS011;2114;50.398;8.814;2022-12-16T22:25:56;0.60;;;0.60;;
4200;SDS011;2114;50.398;8.814;2022-12-16T22:31:16;0.57;;;0.57;;
4200;SDS011;2114;50.398;8.814;2022-12-16T22:36:36;0.70;;;0.70;;
4200;SDS011;2114;50.398;8.814;2022-12-16T22:41:55;1.17;;;1.07;;
4200;SDS011;2114;50.398;8.814;2022-12-16T22:47:14;0.60;;;0.60;;
4200;SDS011;2114;50.398;8.814;2022-12-16T22:52:34;0.70;;;0.70;;
4200;SDS011;2114;50.398;8.814;2022-12-16T22:57:53;0.70;;;0.70;;
4200;SDS011;2114;50.398;8.814;2022-12-16T23:03:16;0.60;;;0.60;;
4200;SDS011;2114;50.398;8.814;2022-12-16T23:08:35;0.60;;;0.60;;
4200;SDS011;2114;50.398;8.814;2022-12-16T23:14:05;4.00;;;1.53;;
4200;SDS011;2114;50.398;8.814;2022-12-16T23:19:25;0.57;;;0.57;;
4200;SDS011;2114;50.398;8.814;2022-12-16T23:24:44;0.50;;;0.50;;
4200;SDS011;2114;50.398;8.814;2022-12-16T23:30:03;0.77;;;0.73;;
4200;SDS011;2114;50.398;8.814;2022-12-16T23:35:23;0.60;;;0.60;;
4200;SDS011;2114;50.398;8.814;2022-12-16T23:40:42;0.50;;;0.50;;
4200;SDS011;2114;50.398;8.814;2022-12-16T23:46:01;0.60;;;0.60;;
4200;SDS011;2114;50.398;8.814;2022-12-16T23:51:21;0.60;;;0.60;;
4200;SDS011;2114;50.398;8.814;2022-12-16T23:56:40;0.50;;;0.50;;
